createdAt,value
2023-03-17T00:00:54.755Z,62.27
2023-03-17T00:01:55.117Z,60.49
2023-03-17T00:02:54.739Z,62.14
2023-03-17T00:03:54.789Z,63.40
2023-03-17T00:04:54.741Z,63.57
2023-03-17T00:05:54.775Z,59.42
2023-03-17T00:06:54.766Z,64.32
2023-03-17T00:07:54.714Z,63.46
2023-03-17T00:08:54.732Z,62.80
2023-03-17T00:09:54.740Z,63.06
2023-03-17T00:10:54.727Z,63.22
2023-03-17T00:11:54.729Z,62.24
2023-03-17T00:12:54.697Z,62.01
2023-03-17T00:13:54.729Z,62.44
2023-03-17T00:14:54.690Z,61.95
2023-03-17T00:15:54.756Z,61.39
2023-03-17T00:16:54.682Z,63.26
2023-03-17T00:17:54.667Z,60.33
2023-03-17T00:18:54.654Z,61.44
2023-03-17T00:19:54.647Z,62.79
2023-03-17T00:20:54.657Z,61.12
2023-03-17T00:21:54.654Z,62.14
2023-03-17T00:22:54.640Z,60.52
2023-03-17T00:23:54.636Z,62.64
2023-03-17T00:24:54.617Z,61.79
2023-03-17T00:25:54.618Z,62.68
2023-03-17T00:26:54.637Z,58.56
2023-03-17T00:27:54.623Z,61.84
2023-03-17T00:28:54.609Z,61.25
2023-03-17T00:29:54.613Z,59.85
2023-03-17T00:30:54.708Z,58.74
2023-03-17T00:31:54.645Z,58.10
2023-03-17T00:32:54.636Z,61.56
2023-03-17T00:33:54.583Z,61.59
2023-03-17T00:34:54.561Z,60.92
2023-03-17T00:35:54.633Z,62.64
2023-03-17T00:36:54.555Z,61.16
2023-03-17T00:37:54.602Z,64.33
2023-03-17T00:38:54.546Z,60.78
2023-03-17T00:39:54.531Z,60.19
2023-03-17T00:40:54.524Z,62.43
2023-03-17T00:41:54.554Z,61.50
2023-03-17T00:42:54.545Z,60.55
2023-03-17T00:43:54.512Z,61.09
2023-03-17T00:44:54.547Z,62.03
2023-03-17T00:45:54.500Z,62.53
2023-03-17T00:47:01.589Z,60.94
2023-03-17T00:47:54.490Z,59.21
2023-03-17T00:48:54.498Z,60.50
2023-03-17T00:49:54.487Z,61.02
2023-03-17T00:50:54.502Z,62.85
2023-03-17T00:51:54.463Z,61.77
2023-03-17T00:52:54.457Z,61.20
2023-03-17T00:53:54.456Z,60.87
2023-03-17T00:54:54.472Z,62.74
2023-03-17T00:55:54.447Z,61.50
2023-03-17T00:56:54.435Z,61.03
2023-03-17T00:57:54.438Z,63.21
2023-03-17T00:58:54.448Z,58.62
2023-03-17T00:59:54.417Z,60.37
2023-03-17T01:00:54.437Z,62.66
2023-03-17T01:01:54.476Z,59.22
2023-03-17T01:02:54.411Z,60.54
2023-03-17T01:03:54.428Z,61.50
2023-03-17T01:05:05.451Z,61.73
2023-03-17T01:05:55.395Z,61.60
2023-03-17T01:06:54.418Z,64.74
2023-03-17T01:07:54.393Z,61.95
2023-03-17T01:08:54.401Z,64.05
2023-03-17T01:09:54.371Z,61.19
2023-03-17T01:10:54.373Z,60.73
2023-03-17T01:11:54.372Z,63.40
2023-03-17T01:12:54.354Z,61.77
2023-03-17T01:13:54.355Z,62.18
2023-03-17T01:14:54.391Z,62.65
2023-03-17T01:15:54.360Z,60.96
2023-03-17T01:16:54.333Z,58.01
2023-03-17T01:17:54.331Z,59.77
2023-03-17T01:18:54.343Z,62.20
2023-03-17T01:19:54.349Z,61.33
2023-03-17T01:20:54.315Z,60.34
2023-03-17T01:21:54.298Z,60.77
2023-03-17T01:22:54.310Z,62.32
2023-03-17T01:23:54.317Z,60.05
2023-03-17T01:24:54.288Z,62.25
2023-03-17T01:25:54.301Z,61.21
2023-03-17T01:26:54.289Z,58.79
2023-03-17T01:27:54.274Z,60.96
2023-03-17T01:28:54.295Z,60.40
2023-03-17T01:29:54.308Z,62.41
2023-03-17T01:30:54.257Z,60.25
2023-03-17T01:31:54.311Z,60.77
2023-03-17T01:32:54.340Z,59.32
2023-03-17T01:33:54.229Z,60.63
2023-03-17T01:34:54.232Z,64.24
2023-03-17T01:35:54.335Z,62.09
2023-03-17T01:36:54.236Z,64.62
2023-03-17T01:37:54.220Z,62.77
2023-03-17T01:38:54.239Z,59.99
2023-03-17T01:39:54.225Z,64.55
2023-03-17T01:40:54.223Z,61.17
2023-03-17T01:41:54.219Z,60.44
2023-03-17T01:42:54.191Z,57.40
2023-03-17T01:43:54.181Z,59.00
2023-03-17T01:44:54.175Z,59.24
2023-03-17T01:45:54.333Z,61.93
2023-03-17T01:46:54.163Z,60.78
2023-03-17T01:47:54.193Z,62.70
2023-03-17T01:48:54.177Z,59.82
2023-03-17T01:49:54.147Z,59.92
2023-03-17T01:50:54.147Z,61.85
2023-03-17T01:51:54.161Z,62.34
2023-03-17T01:52:54.137Z,63.49
2023-03-17T01:53:54.137Z,60.89
2023-03-17T01:54:54.140Z,62.40
2023-03-17T01:55:54.159Z,60.51
2023-03-17T01:56:54.108Z,61.04
2023-03-17T01:57:54.098Z,57.75
2023-03-17T01:58:54.095Z,59.76
2023-03-17T01:59:54.090Z,61.09
2023-03-17T02:00:54.114Z,61.94
2023-03-17T02:01:54.120Z,61.19
2023-03-17T02:02:54.085Z,61.58
2023-03-17T02:03:54.110Z,59.53
2023-03-17T02:04:54.081Z,60.33
2023-03-17T02:05:54.055Z,62.14
2023-03-17T02:06:58.676Z,63.07
2023-03-17T02:07:54.072Z,63.07
2023-03-17T02:08:54.044Z,64.39
2023-03-17T02:09:54.036Z,60.40
2023-03-17T02:10:54.054Z,63.47
2023-03-17T02:11:54.026Z,58.28
2023-03-17T02:12:54.094Z,59.64
2023-03-17T02:13:54.034Z,62.97
2023-03-17T02:14:54.044Z,60.53
2023-03-17T02:15:54.038Z,62.36
2023-03-17T02:16:54.043Z,61.06
2023-03-17T02:17:54.013Z,64.12
2023-03-17T02:18:54.022Z,59.61
2023-03-17T02:19:53.999Z,59.49
2023-03-17T02:20:54.024Z,59.22
2023-03-17T02:21:53.987Z,62.08
2023-03-17T02:22:53.999Z,62.47
2023-03-17T02:23:53.970Z,60.24
2023-03-17T02:24:54.001Z,58.12
2023-03-17T02:25:53.972Z,61.72
2023-03-17T02:26:53.975Z,60.69
2023-03-17T02:27:53.981Z,61.55
2023-03-17T02:28:53.956Z,61.32
2023-03-17T02:29:53.948Z,64.18
2023-03-17T02:30:53.959Z,59.50
2023-03-17T02:31:53.932Z,60.30
2023-03-17T02:32:53.961Z,61.14
2023-03-17T02:33:53.961Z,61.99
2023-03-17T02:34:53.928Z,64.57
2023-03-17T02:35:53.942Z,63.48
2023-03-17T02:36:53.958Z,63.53
2023-03-17T02:37:53.900Z,61.40
2023-03-17T02:38:53.914Z,61.40
2023-03-17T02:39:53.923Z,59.73
2023-03-17T02:40:53.904Z,60.14
2023-03-17T02:41:53.902Z,62.03
2023-03-17T02:42:53.890Z,62.74
2023-03-17T02:43:53.888Z,58.94
2023-03-17T02:44:53.879Z,58.83
2023-03-17T02:45:53.905Z,60.64
2023-03-17T02:46:53.860Z,60.79
2023-03-17T02:47:53.857Z,62.32
2023-03-17T02:48:53.859Z,63.28
2023-03-17T02:49:53.854Z,62.00
2023-03-17T02:50:53.888Z,60.28
2023-03-17T02:51:53.839Z,61.89
2023-03-17T02:52:53.847Z,60.78
2023-03-17T02:53:53.830Z,58.17
2023-03-17T02:54:53.852Z,61.43
2023-03-17T02:55:53.825Z,63.92
2023-03-17T02:56:53.843Z,62.59
2023-03-17T02:57:53.839Z,63.31
2023-03-17T02:58:53.809Z,62.97
2023-03-17T02:59:53.827Z,63.42
2023-03-17T03:00:53.796Z,61.75
2023-03-17T03:01:53.781Z,61.36
2023-03-17T03:02:53.806Z,62.63
2023-03-17T03:03:53.778Z,60.71
2023-03-17T03:04:53.810Z,58.88
2023-03-17T03:05:53.765Z,62.04
2023-03-17T03:06:53.764Z,59.37
2023-03-17T03:07:53.756Z,60.09
2023-03-17T03:08:53.748Z,59.83
2023-03-17T03:09:53.742Z,61.83
2023-03-17T03:10:53.758Z,58.80
2023-03-17T03:11:53.723Z,63.23
2023-03-17T03:12:53.719Z,59.56
2023-03-17T03:13:53.730Z,62.92
2023-03-17T03:14:53.709Z,63.38
2023-03-17T03:15:53.836Z,62.27
2023-03-17T03:16:53.736Z,61.98
2023-03-17T03:17:53.695Z,64.09
2023-03-17T03:18:53.713Z,62.67
2023-03-17T03:19:53.702Z,61.37
2023-03-17T03:20:53.682Z,61.70
2023-03-17T03:21:53.699Z,61.48
2023-03-17T03:22:53.692Z,60.12
2023-03-17T03:23:53.672Z,61.87
2023-03-17T03:24:53.652Z,62.63
2023-03-17T03:25:53.644Z,62.55
2023-03-17T03:26:53.645Z,62.16
2023-03-17T03:27:53.673Z,63.28
2023-03-17T03:28:53.650Z,63.47
2023-03-17T03:29:53.649Z,63.15
2023-03-17T03:30:53.644Z,64.20
2023-03-17T03:31:53.644Z,60.86
2023-03-17T03:32:53.672Z,60.25
2023-03-17T03:33:53.613Z,62.03
2023-03-17T03:34:53.612Z,63.02
2023-03-17T03:35:53.734Z,61.42
2023-03-17T03:36:53.629Z,61.56
2023-03-17T03:37:53.590Z,62.04
2023-03-17T03:38:53.574Z,63.72
2023-03-17T03:39:53.581Z,64.10
2023-03-17T03:40:53.594Z,60.90
2023-03-17T03:41:53.613Z,57.84
2023-03-17T03:42:53.563Z,61.71
2023-03-17T03:43:53.610Z,62.66
2023-03-17T03:44:53.573Z,63.89
2023-03-17T03:45:53.543Z,62.79
2023-03-17T03:46:53.567Z,61.65
2023-03-17T03:47:53.535Z,63.75
2023-03-17T03:48:53.548Z,62.60
2023-03-17T03:49:53.551Z,62.83
2023-03-17T03:50:53.515Z,60.92
2023-03-17T03:51:53.525Z,63.95
2023-03-17T03:52:53.513Z,62.40
2023-03-17T03:53:53.501Z,61.53
2023-03-17T03:54:53.519Z,64.65
2023-03-17T03:55:53.481Z,62.63
2023-03-17T03:56:53.536Z,64.00
2023-03-17T03:57:53.478Z,61.24
2023-03-17T03:58:53.570Z,63.99
2023-03-17T03:59:53.471Z,63.69
2023-03-17T04:00:53.463Z,59.71
2023-03-17T04:01:53.459Z,59.98
2023-03-17T04:02:53.546Z,62.78
2023-03-17T04:03:53.443Z,61.39
2023-03-17T04:04:53.488Z,62.27
2023-03-17T04:05:53.454Z,60.35
2023-03-17T04:06:53.444Z,62.83
2023-03-17T04:07:53.429Z,64.46
2023-03-17T04:08:53.453Z,62.90
2023-03-17T04:09:53.441Z,59.06
2023-03-17T04:10:53.416Z,60.51
2023-03-17T04:11:53.397Z,62.06
2023-03-17T04:12:53.435Z,65.19
2023-03-17T04:13:53.391Z,65.32
2023-03-17T04:14:53.412Z,64.46
2023-03-17T04:15:53.411Z,64.15
2023-03-17T04:16:53.377Z,64.95
2023-03-17T04:17:53.405Z,62.83
2023-03-17T04:18:53.498Z,65.32
2023-03-17T04:19:53.402Z,65.19
2023-03-17T04:20:53.418Z,65.63
2023-03-17T04:21:54.773Z,63.85
2023-03-17T04:22:53.380Z,63.77
2023-03-17T04:23:53.347Z,66.23
2023-03-17T04:24:53.356Z,65.29
2023-03-17T04:25:53.327Z,67.16
2023-03-17T04:26:53.348Z,65.18
2023-03-17T04:27:53.320Z,65.01
2023-03-17T04:28:53.328Z,63.76
2023-03-17T04:29:53.313Z,64.15
2023-03-17T04:30:53.316Z,63.39
2023-03-17T04:31:53.351Z,63.38
2023-03-17T04:32:53.363Z,65.00
2023-03-17T04:33:53.284Z,64.93
2023-03-17T04:34:53.283Z,63.95
2023-03-17T04:35:53.334Z,63.41
2023-03-17T04:36:53.302Z,66.03
2023-03-17T04:37:53.271Z,63.13
2023-03-17T04:38:53.279Z,63.71
2023-03-17T04:39:53.245Z,66.13
2023-03-17T04:40:53.268Z,63.94
2023-03-17T04:41:53.267Z,63.32
2023-03-17T04:42:53.248Z,65.20
2023-03-17T04:43:53.227Z,65.43
2023-03-17T04:44:53.226Z,66.79
2023-03-17T04:45:53.336Z,66.17
2023-03-17T04:46:53.248Z,64.61
2023-03-17T04:47:53.229Z,64.44
2023-03-17T04:48:53.202Z,65.53
2023-03-17T04:49:53.203Z,64.09
2023-03-17T04:50:53.189Z,64.57
2023-03-17T04:51:53.203Z,64.34
2023-03-17T04:52:53.179Z,65.54
2023-03-17T04:53:53.178Z,66.05
2023-03-17T04:54:53.204Z,64.66
2023-03-17T04:55:53.173Z,65.80
2023-03-17T04:56:53.183Z,65.13
2023-03-17T04:57:53.157Z,64.72
2023-03-17T04:58:53.172Z,62.72
2023-03-17T04:59:53.151Z,66.30
2023-03-17T05:00:53.186Z,66.18
2023-03-17T05:01:53.186Z,65.67
2023-03-17T05:02:53.171Z,64.62
2023-03-17T05:03:53.130Z,65.88
2023-03-17T05:04:53.120Z,65.85
2023-03-17T05:05:53.113Z,66.48
2023-03-17T05:06:53.117Z,65.15
2023-03-17T05:07:53.141Z,65.60
2023-03-17T05:08:53.132Z,63.80
2023-03-17T05:09:53.105Z,65.69
2023-03-17T05:10:53.100Z,67.08
2023-03-17T05:11:53.080Z,66.25
2023-03-17T05:12:53.096Z,63.72
2023-03-17T05:13:53.105Z,64.02
2023-03-17T05:14:53.071Z,65.64
2023-03-17T05:15:53.075Z,64.89
2023-03-17T05:16:53.125Z,65.20
2023-03-17T05:17:53.078Z,64.60
2023-03-17T05:18:53.042Z,64.84
2023-03-17T05:19:53.071Z,66.45
2023-03-17T05:20:53.036Z,65.27
2023-03-17T05:21:53.050Z,66.18
2023-03-17T05:22:53.046Z,65.88
2023-03-17T05:23:54.954Z,65.95
2023-03-17T05:24:53.009Z,65.88
2023-03-17T05:25:53.006Z,67.15
2023-03-17T05:26:53.022Z,64.84
2023-03-17T05:27:52.993Z,65.72
2023-03-17T05:28:53.018Z,65.46
2023-03-17T05:29:52.989Z,66.79
2023-03-17T05:30:53.064Z,66.51
2023-03-17T05:31:52.979Z,64.56
2023-03-17T05:32:53.018Z,64.65
2023-03-17T05:33:52.994Z,65.69
2023-03-17T05:34:52.958Z,65.42
2023-03-17T05:35:52.965Z,65.12
2023-03-17T05:36:52.958Z,65.88
2023-03-17T05:37:52.950Z,64.95
2023-03-17T05:38:52.981Z,66.32
2023-03-17T05:39:52.972Z,66.99
2023-03-17T05:40:52.944Z,66.46
2023-03-17T05:41:52.923Z,66.01
2023-03-17T05:42:52.944Z,67.03
2023-03-17T05:43:52.906Z,67.95
2023-03-17T05:44:52.899Z,66.55
2023-03-17T05:45:52.980Z,68.44
2023-03-17T05:46:52.908Z,68.26
2023-03-17T05:47:52.918Z,67.64
2023-03-17T05:48:52.883Z,65.20
2023-03-17T05:49:52.882Z,66.92
2023-03-17T05:50:52.917Z,64.72
2023-03-17T05:51:52.868Z,67.86
2023-03-17T05:52:52.874Z,66.01
2023-03-17T05:53:52.876Z,65.27
2023-03-17T05:54:52.861Z,67.13
2023-03-17T05:55:52.851Z,66.09
2023-03-17T05:56:52.882Z,66.74
2023-03-17T05:57:52.844Z,67.84
2023-03-17T05:58:52.847Z,65.93
2023-03-17T05:59:52.838Z,65.86
2023-03-17T06:00:52.830Z,66.14
2023-03-17T06:01:52.860Z,66.85
2023-03-17T06:02:52.811Z,68.22
2023-03-17T06:03:52.828Z,66.06
2023-03-17T06:04:52.803Z,65.59
2023-03-17T06:05:52.798Z,66.56
2023-03-17T06:06:52.807Z,65.71
2023-03-17T06:07:56.249Z,66.16
2023-03-17T06:08:52.803Z,66.74
2023-03-17T06:09:52.828Z,65.78
2023-03-17T06:10:52.776Z,66.78
2023-03-17T06:11:52.844Z,65.27
2023-03-17T06:12:52.769Z,65.46
2023-03-17T06:13:52.762Z,66.95
2023-03-17T06:14:52.742Z,65.51
2023-03-17T06:15:52.824Z,64.29
2023-03-17T06:16:52.736Z,64.22
2023-03-17T06:17:52.740Z,63.04
2023-03-17T06:18:52.747Z,64.52
2023-03-17T06:19:52.815Z,64.93
2023-03-17T06:20:52.720Z,64.78
2023-03-17T06:21:52.733Z,64.93
2023-03-17T06:23:03.953Z,65.71
2023-03-17T06:23:53.736Z,65.03
2023-03-17T06:24:52.697Z,65.02
2023-03-17T06:25:52.687Z,65.82
2023-03-17T06:26:52.707Z,65.29
2023-03-17T06:27:52.734Z,65.37
2023-03-17T06:28:52.678Z,64.98
2023-03-17T06:29:52.665Z,65.47
2023-03-17T06:30:52.693Z,65.61
2023-03-17T06:31:52.646Z,65.86
2023-03-17T06:32:52.695Z,65.99
2023-03-17T06:33:52.674Z,66.07
2023-03-17T06:34:52.633Z,64.45
2023-03-17T06:35:52.660Z,64.27
2023-03-17T06:36:52.620Z,65.19
2023-03-17T06:37:52.648Z,64.04
2023-03-17T06:38:52.613Z,64.54
2023-03-17T06:39:52.603Z,64.41
2023-03-17T06:40:52.598Z,65.08
2023-03-17T06:41:52.598Z,65.23
2023-03-17T06:42:52.590Z,65.35
2023-03-17T06:43:52.600Z,64.98
2023-03-17T06:44:52.572Z,66.21
2023-03-17T06:45:52.593Z,67.70
2023-03-17T06:46:52.605Z,66.56
2023-03-17T06:47:52.560Z,66.30
2023-03-17T06:48:52.581Z,65.69
2023-03-17T06:49:52.553Z,64.92
2023-03-17T06:50:52.563Z,63.76
2023-03-17T06:51:52.541Z,63.77
2023-03-17T06:52:52.584Z,64.21
2023-03-17T06:53:52.535Z,64.63
2023-03-17T06:54:52.517Z,63.97
2023-03-17T06:55:52.519Z,63.00
2023-03-17T06:56:52.518Z,63.56
2023-03-17T06:57:52.511Z,62.41
2023-03-17T06:58:52.523Z,63.24
2023-03-17T06:59:52.517Z,64.00
2023-03-17T07:00:52.516Z,61.80
2023-03-17T07:01:52.506Z,63.17
2023-03-17T07:02:52.496Z,63.66
2023-03-17T07:03:52.473Z,62.50
2023-03-17T07:04:52.574Z,61.94
2023-03-17T07:05:52.485Z,62.85
2023-03-17T07:06:52.458Z,62.37
2023-03-17T07:07:52.439Z,64.01
2023-03-17T07:08:52.440Z,61.55
2023-03-17T07:09:52.434Z,62.11
2023-03-17T07:10:52.437Z,62.21
2023-03-17T07:11:52.475Z,60.26
2023-03-17T07:12:52.441Z,63.67
2023-03-17T07:13:52.415Z,61.25
2023-03-17T07:14:52.412Z,62.52
2023-03-17T07:15:55.234Z,62.90
2023-03-17T07:16:52.469Z,64.23
2023-03-17T07:17:52.395Z,62.77
2023-03-17T07:18:52.402Z,63.17
2023-03-17T07:19:52.392Z,63.15
2023-03-17T07:20:52.377Z,62.77
2023-03-17T07:21:52.379Z,64.93
2023-03-17T07:22:52.433Z,64.97
2023-03-17T07:23:52.354Z,64.30
2023-03-17T07:24:52.387Z,64.27
2023-03-17T07:25:52.369Z,64.82
2023-03-17T07:26:52.812Z,63.41
2023-03-17T07:27:52.335Z,64.74
2023-03-17T07:28:52.320Z,64.42
2023-03-17T07:29:52.325Z,65.36
2023-03-17T07:30:52.342Z,65.43
2023-03-17T07:31:52.393Z,65.81
2023-03-17T07:32:52.341Z,64.68
2023-03-17T07:33:52.297Z,63.80
2023-03-17T07:34:52.299Z,64.84
2023-03-17T07:35:52.338Z,63.24
2023-03-17T07:36:52.299Z,62.90
2023-03-17T07:37:52.297Z,62.18
2023-03-17T07:38:52.304Z,62.65
2023-03-17T07:39:52.256Z,62.40
2023-03-17T07:40:52.264Z,62.80
2023-03-17T07:41:52.245Z,61.95
2023-03-17T07:42:52.249Z,60.33
2023-03-17T07:43:52.232Z,59.69
2023-03-17T07:44:52.257Z,58.93
2023-03-17T07:45:52.318Z,61.89
2023-03-17T07:46:52.228Z,58.55
2023-03-17T07:47:52.195Z,60.48
2023-03-17T07:48:52.224Z,59.61
2023-03-17T07:49:52.249Z,61.28
2023-03-17T07:50:52.190Z,59.91
2023-03-17T07:51:52.176Z,61.00
2023-03-17T07:52:52.185Z,60.70
2023-03-17T07:53:52.152Z,59.89
2023-03-17T07:54:52.144Z,60.59
2023-03-17T07:55:52.118Z,59.05
2023-03-17T07:56:52.163Z,59.42
2023-03-17T07:57:52.208Z,60.44
2023-03-17T07:58:52.113Z,59.51
2023-03-17T07:59:52.090Z,56.93
2023-03-17T08:00:52.137Z,59.08
2023-03-17T08:01:52.216Z,58.27
2023-03-17T08:03:07.006Z,58.04
2023-03-17T08:03:53.155Z,59.54
2023-03-17T08:04:52.069Z,58.70
2023-03-17T08:05:52.060Z,59.72
2023-03-17T08:06:52.020Z,61.97
2023-03-17T08:07:52.051Z,58.56
2023-03-17T08:08:52.014Z,58.34
2023-03-17T08:09:52.019Z,60.67
2023-03-17T08:10:52.076Z,60.44
2023-03-17T08:11:52.046Z,59.68
2023-03-17T08:12:52.057Z,59.91
2023-03-17T08:13:51.978Z,58.05
2023-03-17T08:14:51.977Z,58.86
2023-03-17T08:15:51.967Z,59.70
2023-03-17T08:16:52.005Z,59.03
2023-03-17T08:17:51.955Z,58.41
2023-03-17T08:18:51.973Z,60.48
2023-03-17T08:19:51.971Z,59.14
2023-03-17T08:20:51.921Z,58.51
2023-03-17T08:21:51.926Z,58.67
2023-03-17T08:22:51.921Z,58.76
2023-03-17T08:23:51.922Z,59.51
2023-03-17T08:24:51.978Z,59.68
2023-03-17T08:25:51.944Z,59.44
2023-03-17T08:26:51.890Z,58.76
2023-03-17T08:27:51.880Z,58.87
2023-03-17T08:28:51.895Z,60.54
2023-03-17T08:29:51.868Z,60.14
2023-03-17T08:30:51.967Z,59.93
2023-03-17T08:31:51.953Z,60.83
2023-03-17T08:32:51.897Z,59.87
2023-03-17T08:33:51.869Z,60.02
2023-03-17T08:34:51.828Z,58.88
2023-03-17T08:35:51.900Z,59.20
2023-03-17T08:36:51.834Z,60.46
2023-03-17T08:37:52.333Z,58.93
2023-03-17T08:38:51.809Z,58.15
2023-03-17T08:39:51.820Z,58.84
2023-03-17T08:40:51.807Z,60.97
2023-03-17T08:41:51.780Z,58.96
2023-03-17T08:42:51.801Z,58.45
2023-03-17T08:43:51.802Z,59.21
2023-03-17T08:44:51.768Z,59.44
2023-03-17T08:45:51.755Z,60.63
2023-03-17T08:46:51.750Z,60.29
2023-03-17T08:47:51.733Z,60.33
2023-03-17T08:48:51.765Z,59.01
2023-03-17T08:49:51.725Z,58.01
2023-03-17T08:50:51.714Z,58.52
2023-03-17T08:51:51.700Z,58.25
2023-03-17T08:52:51.725Z,56.69
2023-03-17T08:53:51.696Z,57.73
2023-03-17T08:54:51.703Z,57.94
2023-03-17T08:55:51.669Z,59.10
2023-03-17T08:56:51.687Z,61.04
2023-03-17T08:57:51.672Z,59.89
2023-03-17T08:58:51.654Z,58.46
2023-03-17T08:59:51.686Z,59.45
2023-03-17T09:00:51.662Z,58.48
2023-03-17T09:01:51.748Z,59.21
2023-03-17T09:02:51.758Z,60.51
2023-03-17T09:03:51.641Z,57.28
2023-03-17T09:04:51.651Z,58.42
2023-03-17T09:05:51.613Z,59.92
2023-03-17T09:07:02.876Z,58.82
2023-03-17T09:07:52.666Z,59.73
2023-03-17T09:08:51.597Z,58.29
2023-03-17T09:09:51.612Z,58.59
2023-03-17T09:10:51.581Z,58.08
2023-03-17T09:11:51.558Z,57.23
2023-03-17T09:12:51.587Z,58.59
2023-03-17T09:13:51.547Z,58.28
2023-03-17T09:14:51.546Z,58.51
2023-03-17T09:15:52.193Z,58.45
2023-03-17T09:16:51.562Z,59.06
2023-03-17T09:17:51.530Z,57.76
2023-03-17T09:18:51.520Z,59.29
2023-03-17T09:19:51.518Z,57.15
2023-03-17T09:20:51.506Z,58.94
2023-03-17T09:21:51.488Z,59.28
2023-03-17T09:22:51.508Z,58.23
2023-03-17T09:23:51.468Z,57.79
2023-03-17T09:24:51.466Z,58.82
2023-03-17T09:25:51.460Z,56.91
2023-03-17T09:26:51.454Z,57.63
2023-03-17T09:27:51.484Z,60.63
2023-03-17T09:28:51.460Z,57.41
2023-03-17T09:29:51.491Z,58.14
2023-03-17T09:30:51.488Z,57.22
2023-03-17T09:31:51.419Z,58.77
2023-03-17T09:32:51.461Z,61.12
2023-03-17T09:33:51.416Z,58.55
2023-03-17T09:34:51.750Z,57.30
2023-03-17T09:35:51.425Z,58.59
2023-03-17T09:36:51.379Z,58.46
2023-03-17T09:37:51.389Z,57.85
2023-03-17T09:38:51.369Z,60.53
2023-03-17T09:39:51.368Z,57.76
2023-03-17T09:40:51.375Z,58.15
2023-03-17T09:41:51.365Z,58.78
2023-03-17T09:42:51.353Z,59.04
2023-03-17T09:43:51.334Z,60.07
2023-03-17T09:44:51.321Z,59.68
2023-03-17T09:45:51.329Z,61.25
2023-03-17T09:46:51.444Z,61.45
2023-03-17T09:47:51.311Z,60.22
2023-03-17T09:48:51.305Z,58.46
2023-03-17T09:49:51.319Z,61.12
2023-03-17T09:50:51.324Z,61.74
2023-03-17T09:51:51.269Z,62.17
2023-03-17T09:52:51.561Z,59.92
2023-03-17T09:53:51.257Z,62.35
2023-03-17T09:54:51.250Z,62.87
2023-03-17T09:55:51.244Z,61.89
2023-03-17T09:56:51.271Z,59.86
2023-03-17T09:57:51.220Z,59.15
2023-03-17T09:58:51.411Z,63.32
2023-03-17T09:59:51.224Z,61.18
2023-03-17T10:00:51.217Z,59.63
2023-03-17T10:01:51.232Z,60.04
2023-03-17T10:02:51.224Z,63.00
2023-03-17T10:03:51.172Z,61.19
2023-03-17T10:04:51.211Z,60.33
2023-03-17T10:05:51.238Z,60.10
2023-03-17T10:06:51.173Z,59.49
2023-03-17T10:07:51.146Z,60.11
2023-03-17T10:08:51.197Z,60.28
2023-03-17T10:09:51.140Z,61.06
2023-03-17T10:10:51.130Z,61.03
2023-03-17T10:11:51.125Z,59.57
2023-03-17T10:12:51.110Z,60.88
2023-03-17T10:13:51.140Z,60.49
2023-03-17T10:14:51.420Z,60.51
2023-03-17T10:15:51.141Z,61.86
2023-03-17T10:16:51.107Z,59.55
2023-03-17T10:17:51.084Z,61.34
2023-03-17T10:18:51.077Z,61.21
2023-03-17T10:19:51.068Z,61.58
2023-03-17T10:20:51.728Z,60.31
2023-03-17T10:21:51.079Z,61.33
2023-03-17T10:22:51.036Z,58.52
2023-03-17T10:23:51.053Z,60.21
2023-03-17T10:24:51.025Z,62.00
2023-03-17T10:25:51.035Z,60.02
2023-03-17T10:26:51.068Z,58.73
2023-03-17T10:27:51.016Z,59.40
2023-03-17T10:28:50.993Z,61.36
2023-03-17T10:29:50.996Z,61.89
2023-03-17T10:30:50.985Z,60.11
2023-03-17T10:31:51.059Z,60.52
2023-03-17T10:32:50.977Z,60.04
2023-03-17T10:33:50.958Z,61.93
2023-03-17T10:34:50.969Z,59.97
2023-03-17T10:35:50.956Z,61.34
2023-03-17T10:36:50.954Z,60.54
2023-03-17T10:37:54.884Z,59.39
2023-03-17T10:38:51.948Z,61.43
2023-03-17T10:39:50.927Z,62.60
2023-03-17T10:40:50.912Z,61.43
2023-03-17T10:41:50.905Z,60.65
2023-03-17T10:42:50.926Z,60.74
2023-03-17T10:43:50.878Z,61.77
2023-03-17T10:44:50.893Z,61.46
2023-03-17T10:45:50.887Z,62.05
2023-03-17T10:46:50.934Z,59.66
2023-03-17T10:47:50.835Z,60.81
2023-03-17T10:48:50.854Z,61.97
2023-03-17T10:49:50.825Z,62.04
2023-03-17T10:50:52.218Z,61.62
2023-03-17T10:51:50.839Z,60.65
2023-03-17T10:52:50.848Z,61.34
2023-03-17T10:53:50.806Z,59.89
2023-03-17T10:54:50.799Z,61.66
2023-03-17T10:55:50.805Z,59.77
2023-03-17T10:56:50.777Z,60.43
2023-03-17T10:57:50.773Z,60.67
2023-03-17T10:58:50.782Z,60.38
2023-03-17T10:59:50.755Z,59.29
2023-03-17T11:00:50.792Z,60.33
2023-03-17T11:01:50.754Z,61.89
2023-03-17T11:02:50.759Z,59.19
2023-03-17T11:03:50.789Z,60.94
2023-03-17T11:04:50.728Z,59.76
2023-03-17T11:05:50.713Z,60.30
2023-03-17T11:06:50.705Z,61.05
2023-03-17T11:07:50.694Z,61.01
2023-03-17T11:08:50.718Z,61.73
2023-03-17T11:09:50.720Z,59.73
2023-03-17T11:10:50.679Z,60.79
2023-03-17T11:11:50.679Z,60.86
2023-03-17T11:12:50.664Z,60.63
2023-03-17T11:13:50.667Z,60.61
2023-03-17T11:14:50.657Z,61.24
2023-03-17T11:15:50.673Z,61.13
2023-03-17T11:16:50.693Z,61.09
2023-03-17T11:17:50.623Z,60.53
2023-03-17T11:18:50.619Z,59.41
2023-03-17T11:19:50.619Z,60.93
2023-03-17T11:20:50.614Z,60.44
2023-03-17T11:21:50.592Z,62.48
2023-03-17T11:22:50.589Z,61.67
2023-03-17T11:23:50.591Z,62.85
2023-03-17T11:24:50.589Z,63.99
2023-03-17T11:25:50.563Z,61.02
2023-03-17T11:26:50.567Z,63.08
2023-03-17T11:27:50.560Z,62.76
2023-03-17T11:28:50.532Z,62.19
2023-03-17T11:29:50.533Z,62.86
2023-03-17T11:30:50.520Z,61.68
2023-03-17T11:31:50.546Z,61.95
2023-03-17T11:32:50.518Z,62.73
2023-03-17T11:33:50.504Z,62.55
2023-03-17T11:34:50.497Z,63.56
2023-03-17T11:35:50.486Z,63.79
2023-03-17T11:36:50.495Z,62.37
2023-03-17T11:37:50.462Z,61.71
2023-03-17T11:38:50.466Z,61.21
2023-03-17T11:39:50.452Z,60.04
2023-03-17T11:40:50.447Z,59.15
2023-03-17T11:41:50.437Z,62.14
2023-03-17T11:42:50.442Z,61.14
2023-03-17T11:43:50.416Z,59.45
2023-03-17T11:44:50.417Z,62.82
2023-03-17T11:45:50.455Z,61.73
2023-03-17T11:46:50.399Z,63.80
2023-03-17T11:47:50.403Z,63.42
2023-03-17T11:48:50.384Z,61.14
2023-03-17T11:49:50.377Z,61.71
2023-03-17T11:50:50.366Z,61.58
2023-03-17T11:51:50.362Z,60.68
2023-03-17T11:52:50.353Z,61.30
2023-03-17T11:53:50.358Z,61.93
2023-03-17T11:54:50.339Z,63.05
2023-03-17T11:55:50.329Z,62.10
2023-03-17T11:56:50.322Z,63.14
2023-03-17T11:57:50.345Z,61.92
2023-03-17T11:58:50.306Z,60.81
2023-03-17T11:59:50.302Z,61.64
2023-03-17T12:00:50.304Z,62.15
2023-03-17T12:01:50.276Z,60.78
2023-03-17T12:02:50.287Z,63.30
2023-03-17T12:03:50.411Z,63.06
2023-03-17T12:04:50.316Z,61.87
2023-03-17T12:05:50.249Z,62.26
2023-03-17T12:06:50.241Z,62.60
2023-03-17T12:07:50.256Z,61.78
2023-03-17T12:08:50.220Z,61.59
2023-03-17T12:09:50.209Z,62.24
2023-03-17T12:10:50.196Z,63.76
2023-03-17T12:11:50.199Z,61.19
2023-03-17T12:12:50.184Z,61.38
2023-03-17T12:13:50.189Z,64.26
2023-03-17T12:14:50.185Z,63.60
2023-03-17T12:15:50.201Z,62.69
2023-03-17T12:16:50.153Z,62.62
2023-03-17T12:17:50.140Z,60.71
2023-03-17T12:18:50.156Z,62.15
2023-03-17T12:19:50.127Z,61.14
2023-03-17T12:20:50.151Z,62.18
2023-03-17T12:21:50.104Z,62.69
2023-03-17T12:22:50.095Z,63.54
2023-03-17T12:23:50.091Z,63.43
2023-03-17T12:24:50.084Z,63.79
2023-03-17T12:25:50.082Z,63.06
2023-03-17T12:26:50.083Z,60.87
2023-03-17T12:27:50.051Z,62.50
2023-03-17T12:28:50.056Z,63.11
2023-03-17T12:29:50.120Z,62.27
2023-03-17T12:30:50.113Z,63.51
2023-03-17T12:31:50.042Z,63.93
2023-03-17T12:32:50.160Z,63.38
2023-03-17T12:33:50.021Z,63.13
2023-03-17T12:34:50.031Z,60.64
2023-03-17T12:35:50.054Z,61.70
2023-03-17T12:36:50.001Z,62.13
2023-03-17T12:37:50.002Z,62.37
2023-03-17T12:38:49.987Z,62.37
2023-03-17T12:39:49.985Z,61.85
2023-03-17T12:40:49.945Z,62.66
2023-03-17T12:41:49.961Z,63.68
2023-03-17T12:42:49.937Z,63.29
2023-03-17T12:43:49.925Z,64.01
2023-03-17T12:44:49.959Z,61.75
2023-03-17T12:45:50.333Z,61.57
2023-03-17T12:46:50.047Z,63.07
2023-03-17T12:47:49.918Z,63.04
2023-03-17T12:48:49.887Z,63.06
2023-03-17T12:49:49.903Z,62.41
2023-03-17T12:50:49.888Z,62.74
2023-03-17T12:51:49.883Z,66.24
2023-03-17T12:52:49.926Z,64.28